createdAt,value
2023-02-18T00:01:13.779Z,12.60
2023-02-18T00:04:16.454Z,12.46
2023-02-18T00:07:19.119Z,12.57
2023-02-18T00:10:21.982Z,12.57
2023-02-18T00:13:24.656Z,12.59
2023-02-18T00:16:28.505Z,12.51
2023-02-18T00:19:31.230Z,12.53
2023-02-18T00:22:33.987Z,12.57
2023-02-18T00:25:37.729Z,12.49
2023-02-18T00:28:40.593Z,12.70
2023-02-18T00:31:43.709Z,12.64
2023-02-18T00:34:49.657Z,12.87
2023-02-18T00:37:53.743Z,13.05
2023-02-18T00:40:56.550Z,13.34
2023-02-18T00:43:59.365Z,13.19
2023-02-18T00:47:02.033Z,13.39
2023-02-18T00:50:05.049Z,13.42
2023-02-18T00:53:07.989Z,13.52
2023-02-18T00:56:13.762Z,13.42
2023-02-18T00:59:16.567Z,13.34
2023-02-18T01:02:19.785Z,13.30
2023-02-18T01:05:22.718Z,13.45
2023-02-18T01:08:25.482Z,13.42
2023-02-18T01:11:28.286Z,13.35
2023-02-18T01:14:31.048Z,13.40
2023-02-18T01:17:33.702Z,13.31
2023-02-18T01:20:37.422Z,13.33
2023-02-18T01:23:41.612Z,13.35
2023-02-18T01:26:47.100Z,13.44
2023-02-18T01:29:49.891Z,13.47
2023-02-18T01:32:57.076Z,13.49
2023-02-18T01:35:59.803Z,13.49
2023-02-18T01:39:02.664Z,13.42
2023-02-18T01:42:05.991Z,13.37
2023-02-18T01:45:33.585Z,13.43
2023-02-18T01:48:55.653Z,13.45
2023-02-18T01:52:12.472Z,13.32
2023-02-18T01:55:15.166Z,13.35
2023-02-18T01:58:18.614Z,13.40
2023-02-18T02:01:21.707Z,13.29
2023-02-18T02:04:28.121Z,13.35
2023-02-18T02:07:31.017Z,13.28
2023-02-18T02:10:56.878Z,13.22
2023-02-18T02:14:08.507Z,13.26
2023-02-18T02:17:23.472Z,13.16
2023-02-18T02:21:00.472Z,13.25
2023-02-18T02:24:37.902Z,13.26
2023-02-18T02:27:49.718Z,13.25
2023-02-18T02:30:52.438Z,13.22
2023-02-18T02:34:16.787Z,13.30
2023-02-18T02:37:40.084Z,13.26
2023-02-18T02:40:44.759Z,13.34
2023-02-18T02:44:05.117Z,13.40
2023-02-18T02:47:17.724Z,13.35
2023-02-18T02:50:43.780Z,13.35
2023-02-18T02:53:46.971Z,13.45
2023-02-18T02:56:50.267Z,13.53
2023-02-18T02:59:58.672Z,13.59
2023-02-18T03:03:18.523Z,13.01
2023-02-18T03:06:57.346Z,13.43
2023-02-18T03:10:22.981Z,13.61
2023-02-18T03:13:56.231Z,13.74
2023-02-18T03:17:16.157Z,13.65
2023-02-18T03:20:28.954Z,13.71
2023-02-18T03:23:38.398Z,13.66
2023-02-18T03:26:45.778Z,13.70
2023-02-18T03:29:54.264Z,13.69
2023-02-18T03:33:02.561Z,13.60
2023-02-18T03:36:05.957Z,13.56
2023-02-18T03:39:18.795Z,13.71
2023-02-18T03:42:26.822Z,13.68
2023-02-18T03:45:29.603Z,13.71
2023-02-18T03:48:32.312Z,13.63
2023-02-18T03:51:34.982Z,13.65
2023-02-18T03:54:37.911Z,13.61
2023-02-18T03:57:40.540Z,13.50
2023-02-18T04:00:43.299Z,13.50
2023-02-18T04:03:45.967Z,13.48
2023-02-18T04:06:48.712Z,13.39
2023-02-18T04:09:51.429Z,13.31
2023-02-18T04:12:54.719Z,13.30
2023-02-18T04:15:57.694Z,13.26
2023-02-18T04:19:00.449Z,13.22
2023-02-18T04:22:03.574Z,13.28
2023-02-18T04:25:09.356Z,13.20
2023-02-18T04:28:14.430Z,13.25
2023-02-18T04:31:17.948Z,13.15
2023-02-18T04:34:21.034Z,13.14
2023-02-18T04:37:23.779Z,13.08
2023-02-18T04:40:30.940Z,13.00
2023-02-18T04:43:33.894Z,12.87
2023-02-18T04:46:37.737Z,12.85
2023-02-18T04:49:40.818Z,12.82
2023-02-18T04:52:43.523Z,12.77
2023-02-18T04:55:50.911Z,12.71
2023-02-18T04:58:53.681Z,12.75
2023-02-18T05:01:56.597Z,12.82
2023-02-18T05:04:59.460Z,12.68
2023-02-18T05:08:02.461Z,12.70
2023-02-18T05:11:09.095Z,12.64
2023-02-18T05:14:11.803Z,12.65
2023-02-18T05:17:15.742Z,12.64
2023-02-18T05:20:18.757Z,12.59
2023-02-18T05:23:21.617Z,12.59
2023-02-18T05:26:24.289Z,12.56
2023-02-18T05:29:27.036Z,12.65
2023-02-18T05:32:29.763Z,12.57
2023-02-18T05:35:33.802Z,12.60
2023-02-18T05:38:39.696Z,12.62
2023-02-18T05:41:42.494Z,12.59
2023-02-18T05:44:45.233Z,12.59
2023-02-18T05:47:47.949Z,12.53
2023-02-18T05:50:54.415Z,12.41
2023-02-18T05:53:57.317Z,12.39
2023-02-18T05:57:00.110Z,12.38
2023-02-18T06:00:02.864Z,12.23
2023-02-18T06:03:07.104Z,12.15
2023-02-18T06:06:10.946Z,12.00
2023-02-18T06:09:14.093Z,11.90
2023-02-18T06:12:16.923Z,11.82
2023-02-18T06:15:19.790Z,11.75
2023-02-18T06:18:22.628Z,11.68
2023-02-18T06:21:25.391Z,11.66
2023-02-18T06:24:28.113Z,11.64
2023-02-18T06:27:30.859Z,11.57
2023-02-18T06:30:34.083Z,11.62
2023-02-18T06:33:37.314Z,11.59
2023-02-18T06:36:40.594Z,11.57
2023-02-18T06:39:43.336Z,11.55
2023-02-18T06:42:46.132Z,11.55
2023-02-18T06:45:48.787Z,11.53
2023-02-18T06:48:51.742Z,11.48
2023-02-18T06:51:54.502Z,11.47
2023-02-18T06:54:57.266Z,11.51
2023-02-18T06:57:59.936Z,11.50
2023-02-18T07:01:03.164Z,11.46
2023-02-18T07:04:06.137Z,11.44
2023-02-18T07:07:08.961Z,11.45
2023-02-18T07:10:11.962Z,11.43
2023-02-18T07:13:14.767Z,11.41
2023-02-18T07:16:17.494Z,11.38
2023-02-18T07:19:20.253Z,11.40
2023-02-18T07:22:23.324Z,11.43
2023-02-18T07:25:26.472Z,11.47
2023-02-18T07:28:29.208Z,11.54
2023-02-18T07:31:32.131Z,11.56
2023-02-18T07:34:35.123Z,11.64
2023-02-18T07:37:37.797Z,11.74
2023-02-18T07:40:41.075Z,11.90
2023-02-18T07:43:43.793Z,11.94
2023-02-18T07:46:48.426Z,12.07
2023-02-18T07:49:51.879Z,12.08
2023-02-18T07:52:54.635Z,12.15
2023-02-18T07:56:00.388Z,12.25
2023-02-18T07:59:03.584Z,12.38
2023-02-18T08:02:08.071Z,12.57
2023-02-18T08:05:11.020Z,12.77
2023-02-18T08:08:15.488Z,12.79
2023-02-18T08:11:19.654Z,12.75
2023-02-18T08:14:22.654Z,12.72
2023-02-18T08:17:25.372Z,12.72
2023-02-18T08:20:30.614Z,12.77
2023-02-18T08:23:34.133Z,13.04
2023-02-18T08:26:36.889Z,13.33
2023-02-18T08:29:39.882Z,13.43
2023-02-18T08:32:42.758Z,13.47
2023-02-18T08:35:48.477Z,13.46
2023-02-18T08:38:51.296Z,13.49
2023-02-18T08:41:54.031Z,13.97
2023-02-18T08:44:56.906Z,14.19
2023-02-18T08:48:16.043Z,14.14
2023-02-18T08:51:23.480Z,14.29
2023-02-18T08:54:26.250Z,14.77
2023-02-18T08:57:29.153Z,15.12
2023-02-18T09:00:32.920Z,15.24
2023-02-18T09:03:36.062Z,15.34
2023-02-18T09:06:39.582Z,15.41
2023-02-18T09:09:42.596Z,15.10
2023-02-18T09:12:45.530Z,14.98
2023-02-18T09:15:57.588Z,14.91
2023-02-18T09:19:00.629Z,14.84
2023-02-18T09:22:03.425Z,14.92
2023-02-18T09:25:07.578Z,15.03
2023-02-18T09:28:10.391Z,14.94
2023-02-18T09:31:16.434Z,15.00
2023-02-18T09:34:19.423Z,14.94
2023-02-18T09:37:22.282Z,14.74
2023-02-18T09:40:29.847Z,14.74
2023-02-18T09:43:37.066Z,14.73
2023-02-18T09:46:43.594Z,14.84
2023-02-18T09:49:52.850Z,14.89
2023-02-18T09:52:56.917Z,14.80
2023-02-18T09:56:00.922Z,14.78
2023-02-18T09:59:05.954Z,14.74
2023-02-18T10:02:11.592Z,14.69
2023-02-18T10:05:15.944Z,14.67
2023-02-18T10:08:45.231Z,14.78
2023-02-18T10:11:52.970Z,14.90
2023-02-18T10:14:58.992Z,14.88
2023-02-18T10:18:02.465Z,14.92
2023-02-18T10:21:14.848Z,15.14
2023-02-18T10:24:33.934Z,15.37
2023-02-18T10:27:38.627Z,15.34
2023-02-18T10:30:44.174Z,15.60
2023-02-18T10:33:55.718Z,15.57
2023-02-18T10:37:05.319Z,15.43
2023-02-18T10:40:11.234Z,15.25
2023-02-18T10:43:46.401Z,15.23
2023-02-18T10:47:10.467Z,15.22
2023-02-18T10:50:27.916Z,15.17
2023-02-18T10:53:38.169Z,15.08
2023-02-18T10:56:52.029Z,15.19
2023-02-18T11:00:12.122Z,15.42
2023-02-18T11:03:22.565Z,16.65
2023-02-18T11:06:31.917Z,16.36
2023-02-18T11:09:41.615Z,15.99
2023-02-18T11:12:51.221Z,15.74
2023-02-18T11:15:56.956Z,15.48
2023-02-18T11:19:04.485Z,15.63
2023-02-18T11:22:21.352Z,15.82
2023-02-18T11:25:27.117Z,16.09
2023-02-18T11:28:38.214Z,16.20
2023-02-18T11:31:46.688Z,15.97
2023-02-18T11:34:50.423Z,16.15
2023-02-18T11:37:53.688Z,16.32
2023-02-18T11:41:07.639Z,17.02
2023-02-18T11:44:23.829Z,17.48
2023-02-18T11:47:37.367Z,16.80
2023-02-18T11:50:40.352Z,16.81
2023-02-18T11:54:01.832Z,16.65
2023-02-18T11:57:12.418Z,18.20
2023-02-18T12:00:37.628Z,18.22
2023-02-18T12:04:00.066Z,18.08
2023-02-18T12:07:05.824Z,17.29
2023-02-18T12:10:16.311Z,17.27
2023-02-18T12:13:29.461Z,17.06
2023-02-18T12:16:51.459Z,17.15
2023-02-18T12:20:33.323Z,16.90
2023-02-18T12:24:34.932Z,16.50
2023-02-18T12:28:15.319Z,16.18
2023-02-18T12:31:31.465Z,16.24
2023-02-18T12:34:46.405Z,16.13
2023-02-18T12:38:04.545Z,16.10
2023-02-18T12:41:20.302Z,15.97
2023-02-18T12:44:45.611Z,15.74
2023-02-18T12:47:59.285Z,15.99
2023-02-18T12:51:33.229Z,16.04
2023-02-18T12:55:09.001Z,16.07
2023-02-18T12:58:34.315Z,15.95
2023-02-18T13:02:11.191Z,16.10
2023-02-18T13:05:32.281Z,16.13
2023-02-18T13:08:41.162Z,16.24
2023-02-18T13:12:08.211Z,16.36
2023-02-18T13:15:21.715Z,16.86
2023-02-18T13:18:42.827Z,17.22
2023-02-18T13:21:46.851Z,16.87
2023-02-18T13:24:51.152Z,16.86
2023-02-18T13:28:12.621Z,17.48
2023-02-18T13:31:20.693Z,18.20
2023-02-18T13:34:48.074Z,18.61
2023-02-18T13:38:03.999Z,19.31
2023-02-18T13:41:07.449Z,19.57
2023-02-18T13:44:30.243Z,20.28
2023-02-18T13:47:46.819Z,20.84
2023-02-18T13:50:52.725Z,21.37
2023-02-18T13:54:03.990Z,21.39
2023-02-18T13:57:17.314Z,21.80
2023-02-18T14:00:26.309Z,21.61
2023-02-18T14:03:36.382Z,21.66
2023-02-18T14:07:25.084Z,21.89
2023-02-18T14:10:32.388Z,21.49
2023-02-18T14:13:53.126Z,21.68
2023-02-18T14:17:30.165Z,21.10
2023-02-18T14:20:41.096Z,20.64
2023-02-18T14:23:57.678Z,20.74
2023-02-18T14:27:09.866Z,21.17
2023-02-18T14:30:28.547Z,21.50
2023-02-18T14:33:32.728Z,20.95
2023-02-18T14:37:04.342Z,20.93
2023-02-18T14:40:39.181Z,20.42
2023-02-18T14:44:07.654Z,19.17
2023-02-18T14:47:33.393Z,19.22
2023-02-18T14:50:38.288Z,19.39
2023-02-18T14:53:44.935Z,19.30
2023-02-18T14:56:57.415Z,18.61
2023-02-18T15:00:00.401Z,18.16
2023-02-18T15:03:03.577Z,18.45
2023-02-18T15:06:37.275Z,17.99
2023-02-18T15:09:53.538Z,18.50
2023-02-18T15:12:56.409Z,18.61
2023-02-18T15:16:03.047Z,19.42
2023-02-18T15:19:07.419Z,18.55
2023-02-18T15:22:19.455Z,18.56
2023-02-18T15:25:26.021Z,18.16
2023-02-18T15:28:33.814Z,17.45
2023-02-18T15:31:39.268Z,17.73
2023-02-18T15:34:43.190Z,17.07
2023-02-18T15:37:47.469Z,16.94
2023-02-18T15:40:52.850Z,16.64
2023-02-18T15:44:02.537Z,16.29
2023-02-18T15:47:09.476Z,15.73
2023-02-18T15:50:22.374Z,15.36
2023-02-18T15:53:26.094Z,14.55
2023-02-18T15:56:40.792Z,14.26
2023-02-18T15:59:47.208Z,13.77
2023-02-18T16:02:56.340Z,13.50
2023-02-18T16:06:17.935Z,13.35
2023-02-18T16:09:26.047Z,13.11
2023-02-18T16:12:31.906Z,12.86
2023-02-18T16:15:39.965Z,12.72
2023-02-18T16:18:43.026Z,12.58
2023-02-18T16:21:45.754Z,12.42
2023-02-18T16:24:52.038Z,12.26
2023-02-18T16:27:57.923Z,12.06
2023-02-18T16:31:01.074Z,12.04
2023-02-18T16:34:04.281Z,11.90
2023-02-18T16:37:28.297Z,11.77
2023-02-18T16:40:38.210Z,11.68
2023-02-18T16:43:42.037Z,11.59
2023-02-18T16:46:45.913Z,11.50
2023-02-18T16:49:50.420Z,11.40
2023-02-18T16:52:53.751Z,11.33
2023-02-18T16:55:56.857Z,11.23
2023-02-18T16:59:00.898Z,11.09
2023-02-18T17:02:04.338Z,11.00
2023-02-18T17:05:14.317Z,10.97
2023-02-18T17:08:25.810Z,10.83
2023-02-18T17:11:35.347Z,10.80
2023-02-18T17:14:38.148Z,10.71
2023-02-18T17:17:40.987Z,10.59
2023-02-18T17:20:44.670Z,10.50
2023-02-18T17:23:47.776Z,10.45
2023-02-18T17:26:53.723Z,10.36
2023-02-18T17:29:56.729Z,10.35
2023-02-18T17:33:03.064Z,10.28
2023-02-18T17:36:06.656Z,10.21
2023-02-18T17:39:14.398Z,10.14
2023-02-18T17:42:17.366Z,10.05
2023-02-18T17:45:37.646Z,10.01
2023-02-18T17:48:41.567Z,10.01
2023-02-18T17:51:44.858Z,10.03
2023-02-18T17:54:48.147Z,10.08
2023-02-18T17:57:51.925Z,10.10
2023-02-18T18:00:57.217Z,10.13
2023-02-18T18:04:00.266Z,10.13
2023-02-18T18:07:04.323Z,10.11
2023-02-18T18:10:09.778Z,10.12
2023-02-18T18:13:22.369Z,10.08
2023-02-18T18:16:26.170Z,10.09
2023-02-18T18:19:30.523Z,10.03
2023-02-18T18:22:33.417Z,10.01
2023-02-18T18:25:41.868Z,9.99
2023-02-18T18:28:45.831Z,9.96
2023-02-18T18:31:49.016Z,9.99
2023-02-18T18:34:52.070Z,9.93
2023-02-18T18:37:55.545Z,9.94
2023-02-18T18:40:58.636Z,9.92
2023-02-18T18:44:02.435Z,9.90
2023-02-18T18:47:05.584Z,9.88
2023-02-18T18:50:08.866Z,9.89
2023-02-18T18:53:19.646Z,9.87
2023-02-18T18:56:22.868Z,9.87
2023-02-18T18:59:25.958Z,9.83
2023-02-18T19:02:29.127Z,9.82
2023-02-18T19:05:38.272Z,9.83
2023-02-18T19:08:41.390Z,9.81
2023-02-18T19:11:44.533Z,9.78
2023-02-18T19:14:47.519Z,9.81
2023-02-18T19:17:53.297Z,9.76
2023-02-18T19:20:56.824Z,9.77
2023-02-18T19:24:00.124Z,9.76
2023-02-18T19:27:03.214Z,9.79
2023-02-18T19:30:07.068Z,9.81
2023-02-18T19:33:11.860Z,9.86
2023-02-18T19:36:16.896Z,9.87
2023-02-18T19:39:19.946Z,9.90
2023-02-18T19:42:23.007Z,9.92
2023-02-18T19:45:26.210Z,9.91
2023-02-18T19:48:29.949Z,9.92
2023-02-18T19:51:33.549Z,9.88
2023-02-18T19:54:36.579Z,9.89
2023-02-18T19:57:39.650Z,9.88
2023-02-18T20:00:44.616Z,9.90
2023-02-18T20:03:47.736Z,9.92
2023-02-18T20:06:50.793Z,9.98
2023-02-18T20:09:54.944Z,10.02
2023-02-18T20:12:57.923Z,10.05
2023-02-18T20:16:01.027Z,10.10
2023-02-18T20:19:04.518Z,10.09
2023-02-18T20:22:08.308Z,10.09
2023-02-18T20:25:11.474Z,10.07
2023-02-18T20:28:15.079Z,10.10
2023-02-18T20:31:18.128Z,10.15
2023-02-18T20:34:21.695Z,10.18
2023-02-18T20:37:24.669Z,10.17
2023-02-18T20:40:27.912Z,10.19
2023-02-18T20:43:33.071Z,10.20
2023-02-18T20:46:37.799Z,10.15
2023-02-18T20:49:41.280Z,10.14
2023-02-18T20:52:44.322Z,10.26
2023-02-18T20:55:48.103Z,10.27
2023-02-18T20:58:52.094Z,10.32
2023-02-18T21:01:54.980Z,10.32
2023-02-18T21:04:58.062Z,10.37
2023-02-18T21:08:02.140Z,10.45
2023-02-18T21:11:07.618Z,10.59
2023-02-18T21:14:11.083Z,10.67
2023-02-18T21:17:13.883Z,10.70
2023-02-18T21:20:17.226Z,10.78
2023-02-18T21:23:20.182Z,10.68
2023-02-18T21:26:25.294Z,10.69
2023-02-18T21:29:28.631Z,10.63
2023-02-18T21:32:31.592Z,10.62
2023-02-18T21:35:39.406Z,10.65
2023-02-18T21:38:45.672Z,10.65
2023-02-18T21:41:48.382Z,10.67
2023-02-18T21:44:51.456Z,10.71
2023-02-18T21:47:54.360Z,10.82
2023-02-18T21:51:01.638Z,10.80
2023-02-18T21:54:04.417Z,10.85
2023-02-18T21:57:25.479Z,10.86
2023-02-18T22:00:28.703Z,10.85
2023-02-18T22:03:32.637Z,10.79
2023-02-18T22:06:35.437Z,10.83
2023-02-18T22:09:38.413Z,10.77
2023-02-18T22:12:41.193Z,10.72
2023-02-18T22:15:43.941Z,10.70
2023-02-18T22:18:46.820Z,10.63
2023-02-18T22:21:49.489Z,10.52
2023-02-18T22:24:52.294Z,10.48
2023-02-18T22:27:54.990Z,10.37
2023-02-18T22:30:57.729Z,10.33
2023-02-18T22:34:01.107Z,10.33
2023-02-18T22:37:03.913Z,10.27
2023-02-18T22:40:06.912Z,10.35
2023-02-18T22:43:09.796Z,10.34
2023-02-18T22:46:14.488Z,10.22
2023-02-18T22:49:17.383Z,10.20
2023-02-18T22:52:20.107Z,10.20
2023-02-18T22:55:22.953Z,10.24
2023-02-18T22:58:25.839Z,10.21
2023-02-18T23:01:37.487Z,10.15
2023-02-18T23:04:41.962Z,10.06
2023-02-18T23:07:45.008Z,9.99
2023-02-18T23:10:47.800Z,9.93
2023-02-18T23:14:09.470Z,9.86
2023-02-18T23:17:15.299Z,10.04
2023-02-18T23:20:37.999Z,9.94
2023-02-18T23:23:40.694Z,9.99
2023-02-18T23:26:43.645Z,9.98
2023-02-18T23:29:46.488Z,10.00
2023-02-18T23:32:49.267Z,9.90
2023-02-18T23:35:51.949Z,9.89
2023-02-18T23:38:59.698Z,9.94
2023-02-18T23:42:02.877Z,10.06
2023-02-18T23:45:05.784Z,9.99
2023-02-18T23:48:08.450Z,10.03
2023-02-18T23:51:17.829Z,10.01
2023-02-18T23:54:21.296Z,9.91
2023-02-18T23:57:24.086Z,9.85
